sensor_id;sensor_type;location;lat;lon;timestamp;temperature;humidity
32506;DHT22;18955;51.224;8.482;2023-06-14T00:01:06;18.20;64.70
32506;DHT22;18955;51.224;8.482;2023-06-14T00:03:33;18.20;64.70
32506;DHT22;18955;51.224;8.482;2023-06-14T00:05:59;18.10;64.80
32506;DHT22;18955;51.224;8.482;2023-06-14T00:08:25;18.10;64.70
32506;DHT22;18955;51.224;8.482;2023-06-14T00:10:51;18.10;64.80
32506;DHT22;18955;51.224;8.482;2023-06-14T00:13:18;18.00;65.20
32506;DHT22;18955;51.224;8.482;2023-06-14T00:15:44;18.00;64.90
32506;DHT22;18955;51.224;8.482;2023-06-14T00:18:11;18.00;64.70
32506;DHT22;18955;51.224;8.482;2023-06-14T00:20:37;17.90;64.70
32506;DHT22;18955;51.224;8.482;2023-06-14T00:23:03;17.90;64.80
32506;DHT22;18955;51.224;8.482;2023-06-14T00:25:30;17.90;64.70
32506;DHT22;18955;51.224;8.482;2023-06-14T00:27:57;17.90;64.90
32506;DHT22;18955;51.224;8.482;2023-06-14T00:30:24;17.80;64.80
32506;DHT22;18955;51.224;8.482;2023-06-14T00:32:50;17.80;65.00
32506;DHT22;18955;51.224;8.482;2023-06-14T00:35:17;17.70;64.80
32506;DHT22;18955;51.224;8.482;2023-06-14T00:37:43;17.70;64.80
32506;DHT22;18955;51.224;8.482;2023-06-14T00:40:10;17.70;64.80
32506;DHT22;18955;51.224;8.482;2023-06-14T00:42:37;17.60;64.80
32506;DHT22;18955;51.224;8.482;2023-06-14T00:45:03;17.60;64.90
32506;DHT22;18955;51.224;8.482;2023-06-14T00:47:30;17.60;64.90
32506;DHT22;18955;51.224;8.482;2023-06-14T00:49:56;17.50;64.60
32506;DHT22;18955;51.224;8.482;2023-06-14T00:52:23;17.50;64.80
32506;DHT22;18955;51.224;8.482;2023-06-14T00:54:51;17.50;64.90
32506;DHT22;18955;51.224;8.482;2023-06-14T00:57:17;17.40;65.00
32506;DHT22;18955;51.224;8.482;2023-06-14T00:59:46;17.40;64.90
32506;DHT22;18955;51.224;8.482;2023-06-14T01:02:13;17.40;65.00
32506;DHT22;18955;51.224;8.482;2023-06-14T01:04:47;17.40;65.10
32506;DHT22;18955;51.224;8.482;2023-06-14T01:15:23;17.30;65.30
32506;DHT22;18955;51.224;8.482;2023-06-14T01:17:50;17.20;65.20
32506;DHT22;18955;51.224;8.482;2023-06-14T01:20:19;17.20;65.30
32506;DHT22;18955;51.224;8.482;2023-06-14T01:22:50;17.20;65.30
32506;DHT22;18955;51.224;8.482;2023-06-14T01:25:18;17.10;65.20
32506;DHT22;18955;51.224;8.482;2023-06-14T01:28:00;17.10;65.30
32506;DHT22;18955;51.224;8.482;2023-06-14T01:30:29;17.10;65.40
32506;DHT22;18955;51.224;8.482;2023-06-14T01:32:57;17.00;65.40
32506;DHT22;18955;51.224;8.482;2023-06-14T01:35:24;17.10;65.40
32506;DHT22;18955;51.224;8.482;2023-06-14T01:37:51;17.00;65.40
32506;DHT22;18955;51.224;8.482;2023-06-14T01:40:19;17.00;65.40
32506;DHT22;18955;51.224;8.482;2023-06-14T01:42:49;17.00;65.40
32506;DHT22;18955;51.224;8.482;2023-06-14T01:45:16;16.90;65.40
32506;DHT22;18955;51.224;8.482;2023-06-14T01:47:44;16.90;65.40
32506;DHT22;18955;51.224;8.482;2023-06-14T01:50:11;16.90;65.40
32506;DHT22;18955;51.224;8.482;2023-06-14T01:52:37;16.90;65.40
32506;DHT22;18955;51.224;8.482;2023-06-14T01:55:05;16.80;65.50
32506;DHT22;18955;51.224;8.482;2023-06-14T01:57:32;16.80;65.30
32506;DHT22;18955;51.224;8.482;2023-06-14T01:59:59;16.80;65.40
32506;DHT22;18955;51.224;8.482;2023-06-14T02:02:25;16.80;65.40
32506;DHT22;18955;51.224;8.482;2023-06-14T02:04:53;16.70;65.50
32506;DHT22;18955;51.224;8.482;2023-06-14T02:07:23;16.70;65.40
32506;DHT22;18955;51.224;8.482;2023-06-14T02:09:51;16.70;65.40
32506;DHT22;18955;51.224;8.482;2023-06-14T02:12:17;16.70;65.50
32506;DHT22;18955;51.224;8.482;2023-06-14T02:14:44;16.60;65.50
32506;DHT22;18955;51.224;8.482;2023-06-14T02:17:10;16.60;65.30
32506;DHT22;18955;51.224;8.482;2023-06-14T02:19:37;16.60;65.50
32506;DHT22;18955;51.224;8.482;2023-06-14T02:22:04;16.60;65.60
32506;DHT22;18955;51.224;8.482;2023-06-14T02:24:30;16.60;65.60
32506;DHT22;18955;51.224;8.482;2023-06-14T02:26:56;16.50;65.70
32506;DHT22;18955;51.224;8.482;2023-06-14T02:29:22;16.50;65.60
32506;DHT22;18955;51.224;8.482;2023-06-14T02:31:48;16.50;65.80
32506;DHT22;18955;51.224;8.482;2023-06-14T02:34:15;16.50;65.70
32506;DHT22;18955;51.224;8.482;2023-06-14T02:36:43;16.50;65.80
32506;DHT22;18955;51.224;8.482;2023-06-14T02:39:09;16.40;65.60
32506;DHT22;18955;51.224;8.482;2023-06-14T02:41:36;16.40;65.70
32506;DHT22;18955;51.224;8.482;2023-06-14T02:44:04;16.40;65.80
32506;DHT22;18955;51.224;8.482;2023-06-14T02:46:30;16.40;65.90
32506;DHT22;18955;51.224;8.482;2023-06-14T02:48:56;16.30;65.80
32506;DHT22;18955;51.224;8.482;2023-06-14T02:51:23;16.30;65.80
32506;DHT22;18955;51.224;8.482;2023-06-14T02:53:49;16.30;65.80
32506;DHT22;18955;51.224;8.482;2023-06-14T02:56:16;16.30;65.90
32506;DHT22;18955;51.224;8.482;2023-06-14T02:58:44;16.30;66.40
32506;DHT22;18955;51.224;8.482;2023-06-14T03:01:11;16.30;66.00
32506;DHT22;18955;51.224;8.482;2023-06-14T03:03:39;16.30;66.00
32506;DHT22;18955;51.224;8.482;2023-06-14T03:06:05;16.20;65.90
32506;DHT22;18955;51.224;8.482;2023-06-14T03:08:34;16.20;66.00
32506;DHT22;18955;51.224;8.482;2023-06-14T03:11:08;16.20;65.90
32506;DHT22;18955;51.224;8.482;2023-06-14T03:13:37;16.20;66.00
32506;DHT22;18955;51.224;8.482;2023-06-14T03:16:05;16.10;65.90
32506;DHT22;18955;51.224;8.482;2023-06-14T03:18:36;16.10;65.90
32506;DHT22;18955;51.224;8.482;2023-06-14T03:21:05;16.10;66.00
32506;DHT22;18955;51.224;8.482;2023-06-14T03:23:33;16.10;66.10
32506;DHT22;18955;51.224;8.482;2023-06-14T03:26:01;16.00;66.00
32506;DHT22;18955;51.224;8.482;2023-06-14T03:28:27;16.00;66.00
32506;DHT22;18955;51.224;8.482;2023-06-14T03:30:55;16.00;66.00
32506;DHT22;18955;51.224;8.482;2023-06-14T03:33:22;16.00;65.90
32506;DHT22;18955;51.224;8.482;2023-06-14T03:35:49;16.00;66.00
32506;DHT22;18955;51.224;8.482;2023-06-14T03:38:16;16.00;66.00
32506;DHT22;18955;51.224;8.482;2023-06-14T03:40:42;15.90;65.90
32506;DHT22;18955;51.224;8.482;2023-06-14T03:43:09;15.90;65.90
32506;DHT22;18955;51.224;8.482;2023-06-14T03:45:36;15.90;65.90
32506;DHT22;18955;51.224;8.482;2023-06-14T03:48:03;15.90;66.00
32506;DHT22;18955;51.224;8.482;2023-06-14T03:50:31;15.90;65.90
32506;DHT22;18955;51.224;8.482;2023-06-14T03:52:58;15.80;66.40
32506;DHT22;18955;51.224;8.482;2023-06-14T03:55:24;15.80;65.90
32506;DHT22;18955;51.224;8.482;2023-06-14T03:57:54;15.80;65.90
32506;DHT22;18955;51.224;8.482;2023-06-14T04:00:21;15.80;66.40
32506;DHT22;18955;51.224;8.482;2023-06-14T04:02:47;15.70;65.90
32506;DHT22;18955;51.224;8.482;2023-06-14T04:05:14;15.70;65.80
32506;DHT22;18955;51.224;8.482;2023-06-14T04:07:46;15.70;65.90
32506;DHT22;18955;51.224;8.482;2023-06-14T04:10:16;15.70;65.80
32506;DHT22;18955;51.224;8.482;2023-06-14T04:12:44;15.70;65.80
32506;DHT22;18955;51.224;8.482;2023-06-14T04:15:11;15.60;65.70
32506;DHT22;18955;51.224;8.482;2023-06-14T04:17:38;15.60;65.70
32506;DHT22;18955;51.224;8.482;2023-06-14T04:20:06;15.60;65.80
32506;DHT22;18955;51.224;8.482;2023-06-14T04:22:34;15.60;65.80
32506;DHT22;18955;51.224;8.482;2023-06-14T04:25:00;15.60;65.90
32506;DHT22;18955;51.224;8.482;2023-06-14T04:27:27;15.50;65.80
32506;DHT22;18955;51.224;8.482;2023-06-14T04:29:55;15.50;65.80
32506;DHT22;18955;51.224;8.482;2023-06-14T04:32:34;15.50;65.80
32506;DHT22;18955;51.224;8.482;2023-06-14T04:35:07;15.50;65.90
32506;DHT22;18955;51.224;8.482;2023-06-14T04:37:34;15.40;65.80
32506;DHT22;18955;51.224;8.482;2023-06-14T04:40:01;15.40;65.90
32506;DHT22;18955;51.224;8.482;2023-06-14T04:42:31;15.40;65.90
32506;DHT22;18955;51.224;8.482;2023-06-14T04:45:00;15.40;65.90
32506;DHT22;18955;51.224;8.482;2023-06-14T04:47:27;15.40;66.00
32506;DHT22;18955;51.224;8.482;2023-06-14T04:49:57;15.30;65.90
32506;DHT22;18955;51.224;8.482;2023-06-14T04:52:24;15.30;65.90
32506;DHT22;18955;51.224;8.482;2023-06-14T04:54:53;15.30;66.00
32506;DHT22;18955;51.224;8.482;2023-06-14T04:57:21;15.30;65.90
32506;DHT22;18955;51.224;8.482;2023-06-14T04:59:49;15.20;66.00
32506;DHT22;18955;51.224;8.482;2023-06-14T05:02:24;15.20;66.00
32506;DHT22;18955;51.224;8.482;2023-06-14T05:04:53;15.20;66.00
32506;DHT22;18955;51.224;8.482;2023-06-14T05:07:19;15.20;66.10
32506;DHT22;18955;51.224;8.482;2023-06-14T05:09:47;15.20;66.00
32506;DHT22;18955;51.224;8.482;2023-06-14T05:12:14;15.20;66.10
32506;DHT22;18955;51.224;8.482;2023-06-14T05:14:45;15.10;66.00
32506;DHT22;18955;51.224;8.482;2023-06-14T05:17:11;15.10;66.10
32506;DHT22;18955;51.224;8.482;2023-06-14T05:19:37;15.10;66.20
32506;DHT22;18955;51.224;8.482;2023-06-14T05:22:04;15.10;66.20
32506;DHT22;18955;51.224;8.482;2023-06-14T05:24:30;15.10;66.20
32506;DHT22;18955;51.224;8.482;2023-06-14T05:26:58;15.10;66.20
32506;DHT22;18955;51.224;8.482;2023-06-14T05:29:25;15.10;66.20
32506;DHT22;18955;51.224;8.482;2023-06-14T05:31:51;15.00;66.20
32506;DHT22;18955;51.224;8.482;2023-06-14T05:34:18;15.00;66.20
32506;DHT22;18955;51.224;8.482;2023-06-14T05:36:44;15.10;66.70
32506;DHT22;18955;51.224;8.482;2023-06-14T05:39:10;15.10;66.20
32506;DHT22;18955;51.224;8.482;2023-06-14T05:41:37;15.10;66.10
32506;DHT22;18955;51.224;8.482;2023-06-14T05:44:03;15.20;66.00
32506;DHT22;18955;51.224;8.482;2023-06-14T05:46:29;15.20;65.80
32506;DHT22;18955;51.224;8.482;2023-06-14T05:48:56;15.30;65.70
32506;DHT22;18955;51.224;8.482;2023-06-14T05:51:22;15.30;65.40
32506;DHT22;18955;51.224;8.482;2023-06-14T05:53:51;15.40;65.30
32506;DHT22;18955;51.224;8.482;2023-06-14T05:56:17;15.50;65.10
32506;DHT22;18955;51.224;8.482;2023-06-14T05:58:45;15.50;65.00
32506;DHT22;18955;51.224;8.482;2023-06-14T06:01:11;15.60;64.60
32506;DHT22;18955;51.224;8.482;2023-06-14T06:03:39;15.70;64.60
32506;DHT22;18955;51.224;8.482;2023-06-14T06:06:05;15.80;64.30
32506;DHT22;18955;51.224;8.482;2023-06-14T06:08:33;15.80;64.20
32506;DHT22;18955;51.224;8.482;2023-06-14T06:10:59;15.90;64.00
32506;DHT22;18955;51.224;8.482;2023-06-14T06:13:27;16.00;63.80
32506;DHT22;18955;51.224;8.482;2023-06-14T06:15:53;16.10;63.60
32506;DHT22;18955;51.224;8.482;2023-06-14T06:18:19;16.10;63.40
32506;DHT22;18955;51.224;8.482;2023-06-14T06:20:46;16.20;63.30
32506;DHT22;18955;51.224;8.482;2023-06-14T06:23:13;16.20;63.30
32506;DHT22;18955;51.224;8.482;2023-06-14T06:25:39;16.20;63.30
32506;DHT22;18955;51.224;8.482;2023-06-14T06:28:06;16.30;63.20
32506;DHT22;18955;51.224;8.482;2023-06-14T06:30:32;16.30;63.20
32506;DHT22;18955;51.224;8.482;2023-06-14T06:32:58;16.30;63.20
32506;DHT22;18955;51.224;8.482;2023-06-14T06:35:25;16.30;63.10
32506;DHT22;18955;51.224;8.482;2023-06-14T06:37:51;16.40;63.30
32506;DHT22;18955;51.224;8.482;2023-06-14T06:40:18;16.40;63.40
32506;DHT22;18955;51.224;8.482;2023-06-14T06:42:44;16.40;63.50
32506;DHT22;18955;51.224;8.482;2023-06-14T06:45:12;16.40;63.60
32506;DHT22;18955;51.224;8.482;2023-06-14T06:47:39;16.40;64.20
32506;DHT22;18955;51.224;8.482;2023-06-14T06:50:05;16.50;63.70
32506;DHT22;18955;51.224;8.482;2023-06-14T06:52:33;16.50;63.70
32506;DHT22;18955;51.224;8.482;2023-06-14T06:54:59;16.50;63.70
32506;DHT22;18955;51.224;8.482;2023-06-14T06:57:26;16.50;63.60
32506;DHT22;18955;51.224;8.482;2023-06-14T06:59:53;16.50;63.70
32506;DHT22;18955;51.224;8.482;2023-06-14T07:02:19;16.60;63.70
32506;DHT22;18955;51.224;8.482;2023-06-14T07:04:45;16.60;63.60
32506;DHT22;18955;51.224;8.482;2023-06-14T07:07:11;16.60;63.60
32506;DHT22;18955;51.224;8.482;2023-06-14T07:09:37;16.60;63.70
32506;DHT22;18955;51.224;8.482;2023-06-14T07:12:04;16.60;63.60
32506;DHT22;18955;51.224;8.482;2023-06-14T07:14:30;16.60;63.50
32506;DHT22;18955;51.224;8.482;2023-06-14T07:16:57;16.70;63.60
32506;DHT22;18955;51.224;8.482;2023-06-14T07:19:23;16.70;63.60
32506;DHT22;18955;51.224;8.482;2023-06-14T07:21:49;16.70;63.60
32506;DHT22;18955;51.224;8.482;2023-06-14T07:24:15;16.80;63.60
32506;DHT22;18955;51.224;8.482;2023-06-14T07:26:42;16.80;63.50
32506;DHT22;18955;51.224;8.482;2023-06-14T07:29:08;16.80;63.30
32506;DHT22;18955;51.224;8.482;2023-06-14T07:31:34;16.80;63.70
32506;DHT22;18955;51.224;8.482;2023-06-14T07:34:00;16.90;63.80
32506;DHT22;18955;51.224;8.482;2023-06-14T07:36:27;16.90;63.90
32506;DHT22;18955;51.224;8.482;2023-06-14T07:38:53;16.90;63.90
32506;DHT22;18955;51.224;8.482;2023-06-14T07:41:20;16.90;64.00
32506;DHT22;18955;51.224;8.482;2023-06-14T07:43:46;16.90;64.00
32506;DHT22;18955;51.224;8.482;2023-06-14T07:46:12;17.00;63.90
32506;DHT22;18955;51.224;8.482;2023-06-14T07:48:38;17.00;63.70
32506;DHT22;18955;51.224;8.482;2023-06-14T07:51:05;17.00;64.00
32506;DHT22;18955;51.224;8.482;2023-06-14T07:53:31;17.00;64.30
32506;DHT22;18955;51.224;8.482;2023-06-14T07:55:58;17.10;64.50
32506;DHT22;18955;51.224;8.482;2023-06-14T07:58:24;17.00;64.40
32506;DHT22;18955;51.224;8.482;2023-06-14T08:00:50;17.10;64.60
32506;DHT22;18955;51.224;8.482;2023-06-14T08:03:17;17.10;64.90
32506;DHT22;18955;51.224;8.482;2023-06-14T08:05:44;17.10;64.40
32506;DHT22;18955;51.224;8.482;2023-06-14T08:08:10;17.10;64.40
32506;DHT22;18955;51.224;8.482;2023-06-14T08:10:36;17.10;64.80
32506;DHT22;18955;51.224;8.482;2023-06-14T08:13:02;17.10;65.00
32506;DHT22;18955;51.224;8.482;2023-06-14T08:15:29;17.20;65.10
32506;DHT22;18955;51.224;8.482;2023-06-14T08:17:55;17.20;65.10
32506;DHT22;18955;51.224;8.482;2023-06-14T08:20:22;17.20;65.30
32506;DHT22;18955;51.224;8.482;2023-06-14T08:22:48;17.20;65.50
32506;DHT22;18955;51.224;8.482;2023-06-14T08:25:14;17.20;65.20
32506;DHT22;18955;51.224;8.482;2023-06-14T08:27:41;17.20;65.30
32506;DHT22;18955;51.224;8.482;2023-06-14T08:30:07;17.20;65.40
32506;DHT22;18955;51.224;8.482;2023-06-14T08:32:34;17.30;65.60
32506;DHT22;18955;51.224;8.482;2023-06-14T08:35:00;17.30;65.70
32506;DHT22;18955;51.224;8.482;2023-06-14T08:37:26;17.30;66.10
32506;DHT22;18955;51.224;8.482;2023-06-14T08:39:52;17.30;66.10
32506;DHT22;18955;51.224;8.482;2023-06-14T08:42:19;17.30;65.90
32506;DHT22;18955;51.224;8.482;2023-06-14T08:44:47;17.30;65.60
32506;DHT22;18955;51.224;8.482;2023-06-14T08:47:14;17.30;66.50
32506;DHT22;18955;51.224;8.482;2023-06-14T08:49:45;17.30;65.60
32506;DHT22;18955;51.224;8.482;2023-06-14T08:52:13;17.30;65.60
32506;DHT22;18955;51.224;8.482;2023-06-14T08:54:44;17.30;66.00
32506;DHT22;18955;51.224;8.482;2023-06-14T08:57:11;17.30;66.40
32506;DHT22;18955;51.224;8.482;2023-06-14T08:59:47;17.40;66.60
32506;DHT22;18955;51.224;8.482;2023-06-14T09:02:15;17.40;66.40
32506;DHT22;18955;51.224;8.482;2023-06-14T09:04:44;17.40;65.90
32506;DHT22;18955;51.224;8.482;2023-06-14T09:07:11;17.40;65.70
32506;DHT22;18955;51.224;8.482;2023-06-14T09:09:40;17.40;65.70
32506;DHT22;18955;51.224;8.482;2023-06-14T09:12:09;17.40;66.40
32506;DHT22;18955;51.224;8.482;2023-06-14T09:14:37;17.40;67.00
32506;DHT22;18955;51.224;8.482;2023-06-14T09:17:05;17.50;66.30
32506;DHT22;18955;51.224;8.482;2023-06-14T09:19:32;17.50;66.40
32506;DHT22;18955;51.224;8.482;2023-06-14T09:21:59;17.50;66.20
32506;DHT22;18955;51.224;8.482;2023-06-14T09:24:26;17.50;66.20
32506;DHT22;18955;51.224;8.482;2023-06-14T09:26:53;17.50;66.10
32506;DHT22;18955;51.224;8.482;2023-06-14T09:29:19;17.50;66.10
32506;DHT22;18955;51.224;8.482;2023-06-14T09:31:48;17.50;65.70
32506;DHT22;18955;51.224;8.482;2023-06-14T09:34:16;17.60;66.40
32506;DHT22;18955;51.224;8.482;2023-06-14T09:36:44;17.60;65.80
32506;DHT22;18955;51.224;8.482;2023-06-14T09:39:10;17.60;66.50
32506;DHT22;18955;51.224;8.482;2023-06-14T09:41:41;17.60;66.00
32506;DHT22;18955;51.224;8.482;2023-06-14T09:44:10;17.60;66.30
32506;DHT22;18955;51.224;8.482;2023-06-14T09:46:37;17.60;66.20
32506;DHT22;18955;51.224;8.482;2023-06-14T09:49:04;17.70;66.40
32506;DHT22;18955;51.224;8.482;2023-06-14T09:51:31;17.60;66.30
32506;DHT22;18955;51.224;8.482;2023-06-14T09:54:00;17.60;66.40
32506;DHT22;18955;51.224;8.482;2023-06-14T09:56:36;17.70;66.30
32506;DHT22;18955;51.224;8.482;2023-06-14T09:59:05;17.60;66.60
32506;DHT22;18955;51.224;8.482;2023-06-14T10:01:39;17.60;66.30
32506;DHT22;18955;51.224;8.482;2023-06-14T10:04:07;17.70;66.60
32506;DHT22;18955;51.224;8.482;2023-06-14T10:06:37;17.70;66.60
32506;DHT22;18955;51.224;8.482;2023-06-14T10:09:08;17.70;66.50
32506;DHT22;18955;51.224;8.482;2023-06-14T10:11:36;17.70;66.70
32506;DHT22;18955;51.224;8.482;2023-06-14T10:14:05;17.70;66.60
32506;DHT22;18955;51.224;8.482;2023-06-14T10:16:36;17.70;66.70
32506;DHT22;18955;51.224;8.482;2023-06-14T10:19:29;17.70;66.60
32506;DHT22;18955;51.224;8.482;2023-06-14T10:22:11;17.70;66.40
32506;DHT22;18955;51.224;8.482;2023-06-14T10:24:43;17.80;66.60
32506;DHT22;18955;51.224;8.482;2023-06-14T10:27:09;17.80;66.60
32506;DHT22;18955;51.224;8.482;2023-06-14T10:32:22;17.80;66.60
32506;DHT22;18955;51.224;8.482;2023-06-14T10:35:09;17.70;66.60
32506;DHT22;18955;51.224;8.482;2023-06-14T10:37:41;17.80;66.50
32506;DHT22;18955;51.224;8.482;2023-06-14T10:40:08;17.80;66.80
32506;DHT22;18955;51.224;8.482;2023-06-14T10:42:34;17.80;66.90
32506;DHT22;18955;51.224;8.482;2023-06-14T10:45:01;17.80;66.90
32506;DHT22;18955;51.224;8.482;2023-06-14T10:50:07;17.80;67.20
32506;DHT22;18955;51.224;8.482;2023-06-14T10:52:34;17.80;67.10
32506;DHT22;18955;51.224;8.482;2023-06-14T10:55:11;17.80;67.20
32506;DHT22;18955;51.224;8.482;2023-06-14T10:57:50;17.80;67.10
32506;DHT22;18955;51.224;8.482;2023-06-14T11:00:23;17.80;66.90
32506;DHT22;18955;51.224;8.482;2023-06-14T11:05:43;17.80;67.00
32506;DHT22;18955;51.224;8.482;2023-06-14T11:10:50;17.80;66.90
32506;DHT22;18955;51.224;8.482;2023-06-14T11:13:16;17.80;67.00
32506;DHT22;18955;51.224;8.482;2023-06-14T11:15:44;17.80;67.10
32506;DHT22;18955;51.224;8.482;2023-06-14T11:18:12;17.80;66.90
32506;DHT22;18955;51.224;8.482;2023-06-14T11:20:40;17.80;67.00
32506;DHT22;18955;51.224;8.482;2023-06-14T11:23:06;17.80;67.10
32506;DHT22;18955;51.224;8.482;2023-06-14T11:25:32;17.80;67.20
32506;DHT22;18955;51.224;8.482;2023-06-14T11:27:58;17.80;67.20
32506;DHT22;18955;51.224;8.482;2023-06-14T11:30:25;17.80;67.30
32506;DHT22;18955;51.224;8.482;2023-06-14T11:32:53;17.80;67.20
32506;DHT22;18955;51.224;8.482;2023-06-14T11:35:21;17.80;67.30
32506;DHT22;18955;51.224;8.482;2023-06-14T11:37:52;17.80;67.30
32506;DHT22;18955;51.224;8.482;2023-06-14T11:40:18;17.80;67.30
32506;DHT22;18955;51.224;8.482;2023-06-14T11:42:45;17.80;67.30
32506;DHT22;18955;51.224;8.482;2023-06-14T11:45:11;17.80;67.30
32506;DHT22;18955;51.224;8.482;2023-06-14T11:47:39;17.80;67.00
32506;DHT22;18955;51.224;8.482;2023-06-14T11:50:09;17.80;67.10
32506;DHT22;18955;51.224;8.482;2023-06-14T11:52:37;17.80;67.70
32506;DHT22;18955;51.224;8.482;2023-06-14T11:55:04;17.80;67.00
32506;DHT22;18955;51.224;8.482;2023-06-14T11:57:36;17.80;67.30
32506;DHT22;18955;51.224;8.482;2023-06-14T12:00:09;17.80;67.20
32506;DHT22;18955;51.224;8.482;2023-06-14T12:02:38;17.80;67.20
32506;DHT22;18955;51.224;8.482;2023-06-14T12:05:07;17.90;67.20
32506;DHT22;18955;51.224;8.482;2023-06-14T12:07:37;17.80;67.20
32506;DHT22;18955;51.224;8.482;2023-06-14T12:10:04;17.80;67.30
32506;DHT22;18955;51.224;8.482;2023-06-14T12:12:38;17.80;67.30
32506;DHT22;18955;51.224;8.482;2023-06-14T12:15:06;17.80;67.20
32506;DHT22;18955;51.224;8.482;2023-06-14T12:17:37;17.90;67.30
32506;DHT22;18955;51.224;8.482;2023-06-14T12:20:11;17.90;67.00
32506;DHT22;18955;51.224;8.482;2023-06-14T12:22:50;17.80;66.90
32506;DHT22;18955;51.224;8.482;2023-06-14T12:27:57;17.90;67.10
32506;DHT22;18955;51.224;8.482;2023-06-14T12:30:23;17.90;67.20
32506;DHT22;18955;51.224;8.482;2023-06-14T12:32:49;17.90;67.10
32506;DHT22;18955;51.224;8.482;2023-06-14T12:35:18;17.90;67.20
32506;DHT22;18955;51.224;8.482;2023-06-14T12:37:47;17.90;67.10
32506;DHT22;18955;51.224;8.482;2023-06-14T12:40:14;17.90;67.10
32506;DHT22;18955;51.224;8.482;2023-06-14T12:42:40;17.90;67.20
32506;DHT22;18955;51.224;8.482;2023-06-14T12:45:07;17.90;67.00
32506;DHT22;18955;51.224;8.482;2023-06-14T12:47:33;17.90;67.10
32506;DHT22;18955;51.224;8.482;2023-06-14T12:49:59;17.90;67.00
32506;DHT22;18955;51.224;8.482;2023-06-14T12:52:26;17.90;67.00
32506;DHT22;18955;51.224;8.482;2023-06-14T12:54:52;17.90;67.00
32506;DHT22;18955;51.224;8.482;2023-06-14T12:57:19;17.90;67.00
32506;DHT22;18955;51.224;8.482;2023-06-14T12:59:45;18.00;67.00
32506;DHT22;18955;51.224;8.482;2023-06-14T13:04:38;18.00;67.00
32506;DHT22;18955;51.224;8.482;2023-06-14T13:07:04;18.00;67.00
32506;DHT22;18955;51.224;8.482;2023-06-14T13:09:30;18.00;67.10
32506;DHT22;18955;51.224;8.482;2023-06-14T13:11:57;18.00;67.20
32506;DHT22;18955;51.224;8.482;2023-06-14T13:14:23;18.00;67.10
32506;DHT22;18955;51.224;8.482;2023-06-14T13:16:49;18.00;67.10
32506;DHT22;18955;51.224;8.482;2023-06-14T13:19:15;18.00;67.10
32506;DHT22;18955;51.224;8.482;2023-06-14T13:21:42;18.00;67.10
32506;DHT22;18955;51.224;8.482;2023-06-14T13:24:08;18.00;66.90
32506;DHT22;18955;51.224;8.482;2023-06-14T13:26:34;18.00;67.00
32506;DHT22;18955;51.224;8.482;2023-06-14T13:29:01;18.00;67.10
32506;DHT22;18955;51.224;8.482;2023-06-14T13:31:27;18.10;67.10
32506;DHT22;18955;51.224;8.482;2023-06-14T13:33:53;18.10;67.10
32506;DHT22;18955;51.224;8.482;2023-06-14T13:36:20;18.10;67.10
32506;DHT22;18955;51.224;8.482;2023-06-14T13:38:46;18.10;67.20
32506;DHT22;18955;51.224;8.482;2023-06-14T13:41:12;18.10;67.50
32506;DHT22;18955;51.224;8.482;2023-06-14T13:43:38;18.10;67.20
32506;DHT22;18955;51.224;8.482;2023-06-14T13:46:04;18.10;67.20
32506;DHT22;18955;51.224;8.482;2023-06-14T13:48:31;18.20;67.40
32506;DHT22;18955;51.224;8.482;2023-06-14T13:50:59;18.10;67.30
32506;DHT22;18955;51.224;8.482;2023-06-14T13:53:26;18.20;67.30
32506;DHT22;18955;51.224;8.482;2023-06-14T13:55:52;18.20;67.80
32506;DHT22;18955;51.224;8.482;2023-06-14T13:58:19;18.20;67.30
32506;DHT22;18955;51.224;8.482;2023-06-14T14:00:45;18.30;66.80
32506;DHT22;18955;51.224;8.482;2023-06-14T14:03:11;18.20;67.20
32506;DHT22;18955;51.224;8.482;2023-06-14T14:05:37;18.30;67.20
32506;DHT22;18955;51.224;8.482;2023-06-14T14:08:04;18.30;67.90
32506;DHT22;18955;51.224;8.482;2023-06-14T14:10:30;18.30;67.20
32506;DHT22;18955;51.224;8.482;2023-06-14T14:12:56;18.40;67.80
32506;DHT22;18955;51.224;8.482;2023-06-14T14:15:23;18.40;66.70
32506;DHT22;18955;51.224;8.482;2023-06-14T14:17:49;18.40;67.20
32506;DHT22;18955;51.224;8.482;2023-06-14T14:20:15;18.50;67.10
32506;DHT22;18955;51.224;8.482;2023-06-14T14:22:43;18.50;67.10
32506;DHT22;18955;51.224;8.482;2023-06-14T14:25:09;18.50;67.00
32506;DHT22;18955;51.224;8.482;2023-06-14T14:27:36;18.60;67.20
32506;DHT22;18955;51.224;8.482;2023-06-14T14:30:04;18.60;67.10
32506;DHT22;18955;51.224;8.482;2023-06-14T14:32:30;18.60;66.90
32506;DHT22;18955;51.224;8.482;2023-06-14T14:34:57;18.70;67.40
32506;DHT22;18955;51.224;8.482;2023-06-14T14:37:23;18.70;67.10
32506;DHT22;18955;51.224;8.482;2023-06-14T14:39:49;18.70;67.30
32506;DHT22;18955;51.224;8.482;2023-06-14T14:42:16;18.70;67.20
32506;DHT22;18955;51.224;8.482;2023-06-14T14:44:42;18.80;67.20
32506;DHT22;18955;51.224;8.482;2023-06-14T14:47:08;18.80;66.90
32506;DHT22;18955;51.224;8.482;2023-06-14T14:49:34;18.90;67.10
32506;DHT22;18955;51.224;8.482;2023-06-14T14:52:01;18.90;67.00
32506;DHT22;18955;51.224;8.482;2023-06-14T14:54:27;18.90;66.50
32506;DHT22;18955;51.224;8.482;2023-06-14T14:56:55;19.00;66.60
32506;DHT22;18955;51.224;8.482;2023-06-14T14:59:21;19.00;66.90
32506;DHT22;18955;51.224;8.482;2023-06-14T15:01:50;19.10;66.60
32506;DHT22;18955;51.224;8.482;2023-06-14T15:04:16;19.10;66.60
32506;DHT22;18955;51.224;8.482;2023-06-14T15:06:43;19.10;66.60
32506;DHT22;18955;51.224;8.482;2023-06-14T15:09:09;19.20;66.90
32506;DHT22;18955;51.224;8.482;2023-06-14T15:11:36;19.10;66.40
32506;DHT22;18955;51.224;8.482;2023-06-14T15:14:02;19.10;66.60
32506;DHT22;18955;51.224;8.482;2023-06-14T15:16:28;19.10;66.90
32506;DHT22;18955;51.224;8.482;2023-06-14T15:18:54;19.20;66.60
32506;DHT22;18955;51.224;8.482;2023-06-14T15:21:20;19.20;66.70
32506;DHT22;18955;51.224;8.482;2023-06-14T15:23:48;19.30;66.80
32506;DHT22;18955;51.224;8.482;2023-06-14T15:26:16;19.30;66.70
32506;DHT22;18955;51.224;8.482;2023-06-14T15:28:42;19.30;66.80
32506;DHT22;18955;51.224;8.482;2023-06-14T15:31:08;19.40;66.70
32506;DHT22;18955;51.224;8.482;2023-06-14T15:33:34;19.50;66.80
32506;DHT22;18955;51.224;8.482;2023-06-14T15:36:00;19.50;66.50
32506;DHT22;18955;51.224;8.482;2023-06-14T15:38:27;19.50;66.20
32506;DHT22;18955;51.224;8.482;2023-06-14T15:40:53;19.50;65.30
32506;DHT22;18955;51.224;8.482;2023-06-14T15:43:19;19.60;65.10
32506;DHT22;18955;51.224;8.482;2023-06-14T15:45:45;19.60;66.40
32506;DHT22;18955;51.224;8.482;2023-06-14T15:48:12;19.70;65.50
32506;DHT22;18955;51.224;8.482;2023-06-14T15:50:38;19.80;66.40
32506;DHT22;18955;51.224;8.482;2023-06-14T15:53:04;19.80;66.40
32506;DHT22;18955;51.224;8.482;2023-06-14T15:55:30;19.80;66.00